Time;durP1;ratioP1;P1;durP2;ratioP2;P2;SDS_P1;SDS_P2;PMS_P1;PMS_P2;Temp;Humidity;BMP_temperature;BMP_pressure;BME280_temperature;BME280_humidity;BME280_pressure;Samples;Min_cycle;Max_cycle;Signal;HPM_P1;HPM_P2
2023/02/22 00:00:49;;;;;;;;;;;;;;;8.45;69.83;101263.06;4194469;28;20007;-64
2023/02/22 00:02:52;;;;;;;;;;;;;;;8.45;70.41;101265.75;4196024;28;20016;-64
2023/02/22 00:04:54;;;;;;;;;;;;;;;8.48;70.31;101261.94;4196632;28;20023;-64
2023/02/22 00:07:00;;;;;;;;;;;;;;;8.50;70.58;101264.47;4196786;28;20023;-64
2023/02/22 00:09:02;;;;;;;;;;;;;;;8.51;70.59;101258.06;4203140;28;20373;-63
2023/02/22 00:11:07;;;;;;;;;;;;;;;8.50;70.41;101257.22;4196067;28;20481;-64
2023/02/22 00:13:10;;;;;;;;;;;;;;;8.51;70.26;101250.84;4197215;28;20016;-64
2023/02/22 00:15:13;;;;;;;;;;;;;;;8.51;70.45;101253.53;4204002;28;20435;-64
2023/02/22 00:17:15;;;;;;;;;;;;;;;8.47;69.88;101246.75;4196385;28;20031;-64
2023/02/22 00:19:16;;;;;;;;;;;;;;;8.42;70.23;101247.19;4195233;28;20016;-63
2023/02/22 00:21:18;;;;;;;;;;;;;;;8.40;70.33;101251.88;4194361;28;20011;-64
2023/02/22 00:23:21;;;;;;;;;;;;;;;8.41;70.56;101244.63;4195246;28;20043;-64
2023/02/22 00:25:23;;;;;;;;;;;;;;;8.42;71.25;101251.72;4202661;28;20007;-64
2023/02/22 00:27:27;;;;;;;;;;;;;;;8.42;71.02;101252.56;4195930;28;20035;-64
2023/02/22 00:29:29;;;;;;;;;;;;;;;8.42;70.68;101243.66;4186838;28;20023;-63
2023/02/22 00:31:31;;;;;;;;;;;;;;;8.40;70.76;101243.81;4187679;28;20031;-64
2023/02/22 00:33:35;;;;;;;;;;;;;;;8.39;70.72;101243.94;4195256;28;20047;-64
2023/02/22 00:35:37;;;;;;;;;;;;;;;8.35;70.79;101248.75;4195650;28;20027;-64
2023/02/22 00:37:40;;;;;;;;;;;;;;;8.35;70.73;101245.22;4194198;28;20035;-64
2023/02/22 00:39:43;;;;;;;;;;;;;;;8.35;70.69;101247.94;4192966;28;20031;-64
2023/02/22 00:41:44;;;;;;;;;;;;;;;8.33;70.97;101247.25;4193035;28;20067;-64
2023/02/22 00:43:48;;;;;;;;;;;;;;;8.35;70.80;101247.94;4195097;28;20024;-64
2023/02/22 00:45:50;;;;;;;;;;;;;;;8.33;70.86;101250.78;4195508;28;20004;-64
2023/02/22 00:47:54;;;;;;;;;;;;;;;8.31;70.95;101242.00;4202823;28;20014;-64
2023/02/22 00:49:56;;;;;;;;;;;;;;;8.26;70.80;101247.84;4195135;28;20453;-64
2023/02/22 00:51:58;;;;;;;;;;;;;;;8.22;70.97;101249.13;4186728;28;20015;-64
2023/02/22 00:54:01;;;;;;;;;;;;;;;8.18;71.31;101252.25;4186467;28;20048;-64
2023/02/22 00:56:03;;;;;;;;;;;;;;;8.16;71.13;101249.72;4193164;28;20024;-64
2023/02/22 00:58:05;;;;;;;;;;;;;;;8.15;71.29;101242.66;4169556;28;20336;-64
2023/02/22 01:00:11;;;;;;;;;;;;;;;8.15;71.37;101247.16;4193752;28;20008;-64
2023/02/22 01:02:14;;;;;;;;;;;;;;;8.13;71.38;101250.00;4202112;28;20010;-64
2023/02/22 01:04:17;;;;;;;;;;;;;;;8.11;71.65;101252.84;4194334;28;20034;-64
2023/02/22 01:06:19;;;;;;;;;;;;;;;8.10;72.08;101255.69;4169966;28;19967;-64
2023/02/22 01:08:23;;;;;;;;;;;;;;;8.10;72.06;101255.69;4196193;28;20008;-64
2023/02/22 01:10:26;;;;;;;;;;;;;;;8.09;72.55;101254.84;4185781;28;20513;-64
2023/02/22 01:12:28;;;;;;;;;;;;;;;8.07;72.66;101253.28;4195450;28;20055;-64
2023/02/22 01:14:30;;;;;;;;;;;;;;;8.06;72.86;101255.16;4195332;28;20007;-64
2023/02/22 01:16:34;;;;;;;;;;;;;;;8.02;73.20;101252.91;4203501;28;20011;-64
2023/02/22 01:18:37;;;;;;;;;;;;;;;8.00;73.43;101253.03;4194264;28;20406;-64
2023/02/22 01:20:39;;;;;;;;;;;;;;;8.01;73.75;101251.19;4194241;28;20051;-64
2023/02/22 01:22:41;;;;;;;;;;;;;;;8.01;74.28;101249.38;4195840;28;20026;-64
2023/02/22 01:24:43;;;;;;;;;;;;;;;7.99;74.43;101247.81;4194373;28;20375;-64
2023/02/22 01:26:50;;;;;;;;;;;;;;;7.96;74.33;101245.41;4202047;28;20453;-64
2023/02/22 01:28:52;;;;;;;;;;;;;;;7.92;74.64;101244.88;4195015;28;20019;-64
2023/02/22 01:30:55;;;;;;;;;;;;;;;7.88;75.21;101241.63;4195487;28;20027;-63
2023/02/22 01:33:01;;;;;;;;;;;;;;;7.89;75.77;101248.69;4185950;28;20015;-64
2023/02/22 01:35:04;;;;;;;;;;;;;;;7.90;75.78;101249.56;4193389;28;20835;-64
2023/02/22 01:37:06;;;;;;;;;;;;;;;7.90;75.94;101245.03;4195623;28;20478;-64
2023/02/22 01:39:09;;;;;;;;;;;;;;;7.92;76.10;101242.19;4186127;28;20024;-64
2023/02/22 01:41:11;;;;;;;;;;;;;;;7.94;76.31;101242.88;4195085;28;20011;-64
2023/02/22 01:43:19;;;;;;;;;;;;;;;7.96;75.89;101240.88;4194616;28;20073;-64
2023/02/22 01:45:39;;;;;;;;;;;;;;;7.94;75.43;101238.31;4202041;28;20027;-64
2023/02/22 01:47:41;;;;;;;;;;;;;;;7.90;75.67;101241.50;4195621;28;20530;-64
2023/02/22 01:49:46;;;;;;;;;;;;;;;7.87;75.49;101234.56;4194083;28;20572;-64
2023/02/22 01:51:51;;;;;;;;;;;;;;;7.85;75.83;101238.38;4194703;28;20380;-64
2023/02/22 01:53:58;;;;;;;;;;;;;;;7.81;76.34;101240.53;4194602;28;20043;-64
2023/02/22 01:56:00;;;;;;;;;;;;;;;7.79;76.38;101237.13;4193277;28;20023;-64
2023/02/22 01:58:02;;;;;;;;;;;;;;;7.72;76.96;101236.84;4186089;28;20012;-64
2023/02/22 02:00:09;;;;;;;;;;;;;;;7.71;77.28;101231.63;4202448;28;20094;-64
2023/02/22 02:02:15;;;;;;;;;;;;;;;7.67;77.13;101233.75;4194876;28;20466;-64
2023/02/22 02:04:19;;;;;;;;;;;;;;;7.65;77.00;101225.00;4194497;28;20019;-64
2023/02/22 02:06:23;;;;;;;;;;;;;;;7.66;77.39;101228.53;4202098;28;20395;-63
2023/02/22 02:08:27;;;;;;;;;;;;;;;7.65;77.35;101229.50;4209688;28;20062;-64
2023/02/22 02:10:30;;;;;;;;;;;;;;;7.60;76.99;101234.50;4192654;28;20020;-64
2023/02/22 02:12:32;;;;;;;;;;;;;;;7.51;77.18;101229.00;4186359;28;20040;-64
2023/02/22 02:14:39;;;;;;;;;;;;;;;7.51;77.58;101230.84;4194861;28;20031;-64
2023/02/22 02:16:42;;;;;;;;;;;;;;;7.54;77.88;101235.94;4195218;28;20012;-64
2023/02/22 02:18:45;;;;;;;;;;;;;;;7.55;77.62;101227.72;4193549;28;20019;-64
2023/02/22 02:20:53;;;;;;;;;;;;;;;7.55;77.13;101225.03;4201555;28;20521;-64
2023/02/22 02:22:56;;;;;;;;;;;;;;;7.49;77.00;101220.25;4210204;28;20379;-64
2023/02/22 02:25:17;;;;;;;;;;;;;;;7.44;77.36;101216.28;4192994;28;20015;-64
2023/02/22 02:27:20;;;;;;;;;;;;;;;7.35;77.73;101234.97;4202149;28;20014;-64
2023/02/22 02:29:52;;;;;;;;;;;;;;;7.31;78.02;101225.50;4195058;28;20023;-64
2023/02/22 02:32:12;;;;;;;;;;;;;;;7.30;78.15;101231.00;4185251;28;20028;-64
2023/02/22 02:34:15;;;;;;;;;;;;;;;7.27;78.18;101228.63;4201949;28;20019;-63
2023/02/22 02:36:19;;;;;;;;;;;;;;;7.26;78.48;101229.59;4191425;28;20442;-64
2023/02/22 02:38:22;;;;;;;;;;;;;;;7.26;78.88;101222.41;4193190;28;20361;-64
2023/02/22 02:40:27;;;;;;;;;;;;;;;7.20;78.97;101225.66;4191925;28;20031;-64
2023/02/22 02:42:30;;;;;;;;;;;;;;;7.16;79.66;101221.56;4201990;28;20305;-64
2023/02/22 02:44:33;;;;;;;;;;;;;;;7.14;80.09;101229.75;4193435;28;20019;-64
2023/02/22 02:46:35;;;;;;;;;;;;;;;7.12;79.98;101222.84;4195233;28;20517;-64
2023/02/22 02:48:42;;;;;;;;;;;;;;;7.11;80.31;101226.50;4201137;28;20030;-64
2023/02/22 02:50:44;;;;;;;;;;;;;;;7.14;80.47;101227.06;4193910;28;20039;-64
2023/02/22 02:52:46;;;;;;;;;;;;;;;7.17;80.85;101223.25;4193499;28;20441;-64
2023/02/22 02:54:48;;;;;;;;;;;;;;;7.19;80.29;101227.50;4193420;28;20042;-63
2023/02/22 02:56:50;;;;;;;;;;;;;;;7.16;80.44;101225.09;4185944;28;20016;-64
2023/02/22 02:58:53;;;;;;;;;;;;;;;7.16;80.06;101226.94;4194681;28;20369;-63
2023/02/22 03:01:03;;;;;;;;;;;;;;;7.13;80.08;101224.53;4184077;28;20026;-64
2023/02/22 03:03:18;;;;;;;;;;;;;;;7.06;80.61;101224.25;4196170;28;20026;-64
2023/02/22 03:05:26;;;;;;;;;;;;;;;7.01;81.00;101223.84;4204311;28;20647;-64
2023/02/22 03:07:28;;;;;;;;;;;;;;;7.01;81.28;101229.22;4196576;28;20466;-64
2023/02/22 03:09:35;;;;;;;;;;;;;;;7.00;81.56;101222.97;4197364;28;20020;-64
2023/02/22 03:11:40;;;;;;;;;;;;;;;6.95;82.00;101216.34;4197531;28;20055;-64
2023/02/22 03:13:45;;;;;;;;;;;;;;;6.92;82.23;101222.84;4204869;28;20023;-63
2023/02/22 03:15:51;;;;;;;;;;;;;;;6.88;82.19;101217.88;4213300;28;20023;-63
2023/02/22 03:17:55;;;;;;;;;;;;;;;6.87;82.62;101214.38;4195535;28;20018;-64
2023/02/22 03:19:58;;;;;;;;;;;;;;;6.94;82.65;101212.78;4196926;28;20031;-64
2023/02/22 03:22:02;;;;;;;;;;;;;;;6.98;82.52;101214.22;4188609;28;20011;-64
2023/02/22 03:24:06;;;;;;;;;;;;;;;6.99;82.37;101209.69;4188799;28;20011;-64
2023/02/22 03:26:10;;;;;;;;;;;;;;;6.96;82.07;101216.19;4196998;28;20022;-64
2023/02/22 03:28:14;;;;;;;;;;;;;;;6.91;82.20;101215.78;4188172;28;20063;-65
2023/02/22 03:30:19;;;;;;;;;;;;;;;6.86;82.10;101215.34;4186308;28;20019;-64
2023/02/22 03:32:22;;;;;;;;;;;;;;;6.83;83.08;101213.81;4197120;28;20031;-64
2023/02/22 03:34:26;;;;;;;;;;;;;;;6.87;83.45;101217.06;4204776;28;20027;-64
2023/02/22 03:36:30;;;;;;;;;;;;;;;6.91;83.30;101210.41;4196020;28;20346;-64
2023/02/22 03:38:33;;;;;;;;;;;;;;;6.93;83.20;101211.13;4205457;28;20030;-64
2023/02/22 03:40:36;;;;;;;;;;;;;;;6.94;83.13;101214.63;4197261;28;20036;-64
2023/02/22 03:42:39;;;;;;;;;;;;;;;6.95;82.95;101211.81;4204652;28;20035;-64
2023/02/22 03:44:41;;;;;;;;;;;;;;;6.98;83.11;101213.38;4194393;28;20042;-64
2023/02/22 03:46:44;;;;;;;;;;;;;;;6.97;82.99;101217.03;4203609;28;20019;-64
2023/02/22 03:48:46;;;;;;;;;;;;;;;6.94;83.02;101215.47;4195820;28;20048;-65
2023/02/22 03:50:48;;;;;;;;;;;;;;;6.94;83.19;101220.00;4194581;28;20032;-64
2023/02/22 03:52:51;;;;;;;;;;;;;;;6.95;83.27;101214.50;4203889;28;20015;-64
2023/02/22 03:55:00;;;;;;;;;;;;;;;6.95;83.17;101217.19;4212076;28;20022;-65
2023/02/22 03:57:04;;;;;;;;;;;;;;;6.94;83.44;101220.00;4203652;28;20486;-64
2023/02/22 03:59:10;;;;;;;;;;;;;;;6.95;83.45;101213.66;4185691;28;20481;-64
2023/02/22 04:01:13;;;;;;;;;;;;;;;6.94;83.39;101217.31;4194626;28;20011;-64
2023/02/22 04:03:16;;;;;;;;;;;;;;;6.92;83.62;101219.31;4196592;28;20067;-65
2023/02/22 04:05:18;;;;;;;;;;;;;;;6.92;83.78;101219.31;4196162;28;20047;-64
2023/02/22 04:07:20;;;;;;;;;;;;;;;6.93;83.91;101216.50;4188422;28;20031;-65
2023/02/22 04:09:23;;;;;;;;;;;;;;;6.93;83.75;101213.81;4187009;28;20705;-64
2023/02/22 04:11:27;;;;;;;;;;;;;;;6.95;84.10;101216.34;4187171;28;20027;-64
2023/02/22 04:13:29;;;;;;;;;;;;;;;6.96;83.75;101215.34;4187277;28;20430;-64
2023/02/22 04:15:33;;;;;;;;;;;;;;;6.97;83.96;101222.41;4203793;28;20043;-65
2023/02/22 04:17:39;;;;;;;;;;;;;;;6.98;84.16;101218.75;4188193;28;20027;-64
2023/02/22 04:19:42;;;;;;;;;;;;;;;7.01;83.83;101221.16;4211515;28;20010;-65
2023/02/22 04:21:44;;;;;;;;;;;;;;;7.01;83.96;101222.00;4186711;28;20072;-64
2023/02/22 04:23:54;;;;;;;;;;;;;;;7.02;83.60;101218.31;4178196;28;20023;-65
2023/02/22 04:25:56;;;;;;;;;;;;;;;6.99;83.60;101213.25;4203190;28;20019;-65
2023/02/22 04:28:00;;;;;;;;;;;;;;;6.99;83.73;101218.59;4187033;28;20470;-64
2023/02/22 04:30:21;;;;;;;;;;;;;;;6.98;83.57;101214.22;4191938;28;20375;-65
2023/02/22 04:32:24;;;;;;;;;;;;;;;6.97;83.88;101214.34;4186490;28;20403;-65
2023/02/22 04:34:26;;;;;;;;;;;;;;;6.98;83.55;101211.53;4194958;28;20441;-64
2023/02/22 04:36:30;;;;;;;;;;;;;;;6.99;83.51;101210.56;4190719;28;20027;-64
2023/02/22 04:38:34;;;;;;;;;;;;;;;6.99;83.44;101212.38;4203335;28;20024;-65
2023/02/22 04:40:36;;;;;;;;;;;;;;;7.00;83.69;101216.75;4207216;28;20022;-65
2023/02/22 04:42:38;;;;;;;;;;;;;;;7.03;83.52;101216.47;4188454;28;20466;-65
2023/02/22 04:44:42;;;;;;;;;;;;;;;7.03;83.57;101220.00;4184430;28;20019;-64
2023/02/22 04:46:45;;;;;;;;;;;;;;;7.03;83.50;101219.16;4195207;28;20590;-65
2023/02/22 04:48:49;;;;;;;;;;;;;;;7.04;83.73;101221.72;4203842;28;20035;-64
2023/02/22 04:50:52;;;;;;;;;;;;;;;7.06;83.33;101218.03;4187225;28;20023;-65
2023/02/22 04:52:55;;;;;;;;;;;;;;;7.04;83.23;101220.88;4186321;28;20030;-64
2023/02/22 04:54:57;;;;;;;;;;;;;;;6.98;83.44;101211.53;4193110;28;20407;-65
2023/02/22 04:57:00;;;;;;;;;;;;;;;6.95;83.57;101214.50;4194170;28;20028;-64
2023/02/22 04:59:03;;;;;;;;;;;;;;;6.96;83.80;101212.66;4186251;28;20012;-64
2023/02/22 05:01:07;;;;;;;;;;;;;;;6.98;83.97;101213.38;4193897;28;20359;-65
2023/02/22 05:03:09;;;;;;;;;;;;;;;7.00;84.10;101211.38;4203182;28;20423;-64
2023/02/22 05:05:11;;;;;;;;;;;;;;;7.04;84.31;101210.13;4189545;28;20020;-65
2023/02/22 05:07:13;;;;;;;;;;;;;;;7.09;84.28;101215.06;4189918;28;20023;-64
2023/02/22 05:09:17;;;;;;;;;;;;;;;7.09;83.80;101207.84;4192280;28;20008;-65
2023/02/22 05:11:20;;;;;;;;;;;;;;;7.08;84.12;101210.69;4192788;28;20413;-65
2023/02/22 05:13:22;;;;;;;;;;;;;;;7.07;83.84;101214.34;4191757;28;20023;-64
2023/02/22 05:15:24;;;;;;;;;;;;;;;7.04;83.67;101205.59;4194524;28;20000;-65
2023/02/22 05:17:28;;;;;;;;;;;;;;;7.02;83.77;101204.91;4193140;28;20035;-64
2023/02/22 05:19:30;;;;;;;;;;;;;;;7.03;84.19;101205.72;4191704;28;20031;-64
2023/02/22 05:21:32;;;;;;;;;;;;;;;7.02;83.94;101206.72;4190587;28;20036;-65
2023/02/22 05:23:36;;;;;;;;;;;;;;;7.01;84.15;101205.88;4182116;28;20039;-65
2023/02/22 05:25:38;;;;;;;;;;;;;;;6.98;83.89;101210.69;4184176;28;20007;-65
2023/02/22 05:27:41;;;;;;;;;;;;;;;6.95;84.42;101203.75;4188602;28;20043;-64
2023/02/22 05:29:43;;;;;;;;;;;;;;;6.94;84.04;101201.22;4186510;28;20015;-65
2023/02/22 05:31:45;;;;;;;;;;;;;;;6.93;84.30;101202.19;4186244;28;19988;-65
2023/02/22 05:33:48;;;;;;;;;;;;;;;6.94;84.66;101196.69;4187480;28;20027;-65
2023/02/22 05:35:50;;;;;;;;;;;;;;;6.96;84.54;101201.91;4185951;28;20019;-65
2023/02/22 05:37:53;;;;;;;;;;;;;;;7.02;84.73;101204.03;4190775;28;20032;-65
2023/02/22 05:39:55;;;;;;;;;;;;;;;7.01;84.25;101199.66;4193488;28;20011;-65
2023/02/22 05:41:57;;;;;;;;;;;;;;;7.01;84.48;101200.50;4190175;28;20007;-64
2023/02/22 05:44:01;;;;;;;;;;;;;;;7.03;84.53;101205.72;4192172;28;20028;-64
2023/02/22 05:46:03;;;;;;;;;;;;;;;7.05;84.15;101206.44;4190208;28;20843;-64
2023/02/22 05:48:06;;;;;;;;;;;;;;;7.06;84.25;101201.94;4192783;28;20020;-64
2023/02/22 05:50:09;;;;;;;;;;;;;;;7.04;83.97;101210.13;4192432;28;20015;-64
2023/02/22 05:52:11;;;;;;;;;;;;;;;7.02;84.39;101206.72;4187174;28;20015;-63
2023/02/22 05:54:13;;;;;;;;;;;;;;;7.01;84.45;101211.25;4190428;28;20107;-64
2023/02/22 05:56:20;;;;;;;;;;;;;;;7.01;84.20;101210.41;4192401;28;20537;-63
2023/02/22 05:58:22;;;;;;;;;;;;;;;7.01;84.57;101213.94;4191485;28;20045;-64
2023/02/22 06:00:25;;;;;;;;;;;;;;;7.02;84.57;101214.78;4193129;28;20437;-64
2023/02/22 06:02:27;;;;;;;;;;;;;;;7.03;84.65;101211.94;4190947;28;20019;-64
2023/02/22 06:04:29;;;;;;;;;;;;;;;7.05;84.47;101211.81;4192594;28;20015;-63
2023/02/22 06:06:32;;;;;;;;;;;;;;;7.09;84.66;101217.75;4192576;28;20019;-64
2023/02/22 06:08:34;;;;;;;;;;;;;;;7.12;84.53;101218.31;4192459;28;20027;-64
2023/02/22 06:10:36;;;;;;;;;;;;;;;7.15;84.50;101218.03;4193457;28;20020;-64
2023/02/22 06:12:38;;;;;;;;;;;;;;;7.18;84.39;101216.91;4192827;28;20422;-63
2023/02/22 06:14:44;;;;;;;;;;;;;;;7.19;84.34;101214.06;4199724;28;20047;-64
2023/02/22 06:16:52;;;;;;;;;;;;;;;7.21;84.23;101224.69;4193170;28;20028;-64
2023/02/22 06:18:54;;;;;;;;;;;;;;;7.20;83.77;101215.75;4193553;28;20020;-63
2023/02/22 06:20:56;;;;;;;;;;;;;;;7.20;83.64;101223.81;4191230;28;20039;-63
2023/02/22 06:22:59;;;;;;;;;;;;;;;7.23;83.81;101228.06;4191999;28;20032;-64
2023/02/22 06:25:02;;;;;;;;;;;;;;;7.24;83.82;101224.38;4193269;28;20031;-64
2023/02/22 06:27:04;;;;;;;;;;;;;;;7.24;83.87;101232.44;4194178;28;20402;-64
2023/02/22 06:29:06;;;;;;;;;;;;;;;7.26;83.45;101226.91;4186332;28;20015;-64
2023/02/22 06:31:08;;;;;;;;;;;;;;;7.26;83.71;101230.47;4192774;28;20019;-63
2023/02/22 06:33:11;;;;;;;;;;;;;;;7.28;83.79;101239.22;4183550;28;20027;-63
2023/02/22 06:35:13;;;;;;;;;;;;;;;7.29;83.45;101234.69;4192773;28;20015;-64
2023/02/22 06:37:16;;;;;;;;;;;;;;;7.30;83.58;101233.69;4193457;28;20030;-64
2023/02/22 06:39:19;;;;;;;;;;;;;;;7.31;83.63;101238.94;4192638;28;20392;-64
2023/02/22 06:41:21;;;;;;;;;;;;;;;7.35;83.52;101245.72;4191316;28;20358;-64
2023/02/22 06:43:26;;;;;;;;;;;;;;;7.36;83.53;101249.25;4194339;28;20015;-64
2023/02/22 06:45:28;;;;;;;;;;;;;;;7.36;83.32;101243.88;4193049;28;20011;-64
2023/02/22 06:47:30;;;;;;;;;;;;;;;7.37;83.53;101254.47;4193257;28;20028;-64
2023/02/22 06:49:32;;;;;;;;;;;;;;;7.37;83.77;101245.59;4193532;28;20015;-64
2023/02/22 06:51:35;;;;;;;;;;;;;;;7.37;83.58;101248.28;4201982;28;20566;-64
2023/02/22 06:53:40;;;;;;;;;;;;;;;7.38;83.71;101239.19;4194116;28;20019;-64
2023/02/22 06:55:43;;;;;;;;;;;;;;;7.38;83.60;101245.44;4192985;28;20011;-64
2023/02/22 06:57:45;;;;;;;;;;;;;;;7.39;83.31;101243.59;4193481;28;20031;-64
2023/02/22 06:59:47;;;;;;;;;;;;;;;7.40;83.53;101247.97;4194458;28;20426;-64
2023/02/22 07:01:49;;;;;;;;;;;;;;;7.41;83.07;101249.66;4194614;28;20020;-64
2023/02/22 07:03:51;;;;;;;;;;;;;;;7.41;83.13;101263.09;4191164;28;20027;-67
2023/02/22 07:05:54;;;;;;;;;;;;;;;7.39;82.84;101255.19;4193983;28;20003;-64
2023/02/22 07:08:00;;;;;;;;;;;;;;;7.40;82.46;101250.66;4201556;28;20015;-64
2023/02/22 07:10:02;;;;;;;;;;;;;;;7.38;82.73;101253.50;4193990;28;20019;-63
2023/02/22 07:12:07;;;;;;;;;;;;;;;7.36;82.17;101255.47;4194097;28;20038;-64
2023/02/22 07:14:09;;;;;;;;;;;;;;;7.34;81.91;101257.44;4193963;28;20478;-64
2023/02/22 07:16:11;;;;;;;;;;;;;;;7.35;82.14;101260.97;4190764;28;20027;-64
2023/02/22 07:18:14;;;;;;;;;;;;;;;7.34;81.98;101265.50;4192531;28;20020;-64
2023/02/22 07:20:19;;;;;;;;;;;;;;;7.32;82.18;101263.94;4173320;28;20051;-64
2023/02/22 07:22:22;;;;;;;;;;;;;;;7.32;81.99;101267.50;4162455;28;19933;-63
2023/02/22 07:24:24;;;;;;;;;;;;;;;7.33;82.02;101260.28;4166938;28;20020;-64
2023/02/22 07:26:27;;;;;;;;;;;;;;;7.33;82.36;101271.03;4191967;28;20498;-63
2023/02/22 07:28:30;;;;;;;;;;;;;;;7.34;82.54;101270.06;4187599;28;20019;-64
2023/02/22 07:30:33;;;;;;;;;;;;;;;7.34;82.35;101262.00;4190730;28;20019;-64
2023/02/22 07:32:35;;;;;;;;;;;;;;;7.35;82.08;101260.97;4192191;28;20019;-65
2023/02/22 07:34:37;;;;;;;;;;;;;;;7.35;81.87;101263.66;4189991;28;20066;-63
2023/02/22 07:36:39;;;;;;;;;;;;;;;7.36;81.90;101260.84;4191978;28;20019;-64
2023/02/22 07:38:41;;;;;;;;;;;;;;;7.36;82.12;101268.91;4193050;28;20027;-64
2023/02/22 07:40:45;;;;;;;;;;;;;;;7.35;82.11;101267.22;4183534;28;20011;-64
2023/02/22 07:42:51;;;;;;;;;;;;;;;7.36;82.23;101265.38;4194743;28;20055;-64
2023/02/22 07:44:54;;;;;;;;;;;;;;;7.36;82.27;101268.06;4194365;28;20019;-64
2023/02/22 07:46:56;;;;;;;;;;;;;;;7.35;82.35;101256.47;4192654;28;20027;-63
2023/02/22 07:48:58;;;;;;;;;;;;;;;7.39;82.15;101262.41;4195451;28;20011;-63
2023/02/22 07:51:00;;;;;;;;;;;;;;;7.39;81.82;101252.50;4193943;28;20023;-63
2023/02/22 07:53:03;;;;;;;;;;;;;;;7.41;82.26;101268.47;4197402;28;20028;-63
2023/02/22 07:55:06;;;;;;;;;;;;;;;7.42;82.32;101261.28;4195715;28;20024;-63
2023/02/22 07:57:08;;;;;;;;;;;;;;;7.43;81.94;101266.50;4196823;28;20038;-64
2023/02/22 07:59:10;;;;;;;;;;;;;;;7.44;82.16;101261.97;4195179;28;20015;-64
2023/02/22 08:01:14;;;;;;;;;;;;;;;7.46;82.10;101265.34;4194261;28;20729;-63
2023/02/22 08:03:16;;;;;;;;;;;;;;;7.48;82.26;101263.41;4192879;28;20027;-64
2023/02/22 08:05:19;;;;;;;;;;;;;;;7.50;82.37;101270.31;4192897;28;20011;-64
2023/02/22 08:07:21;;;;;;;;;;;;;;;7.52;82.31;101262.09;4191425;28;20027;-63
2023/02/22 08:09:23;;;;;;;;;;;;;;;7.52;81.86;101271.03;4194422;28;20027;-63
2023/02/22 08:11:25;;;;;;;;;;;;;;;7.52;81.89;101271.03;4195461;28;20018;-64
2023/02/22 08:13:27;;;;;;;;;;;;;;;7.52;81.75;101262.97;4195250;28;20031;-64
2023/02/22 08:15:30;;;;;;;;;;;;;;;7.52;82.11;101268.34;4193391;28;20023;-64
2023/02/22 08:17:33;;;;;;;;;;;;;;;7.54;81.99;101265.50;4195562;28;20012;-64
2023/02/22 08:19:35;;;;;;;;;;;;;;;7.56;81.77;101269.72;4195124;28;20019;-63
2023/02/22 08:21:37;;;;;;;;;;;;;;;7.56;81.55;101264.34;4195014;28;20015;-63
2023/02/22 08:23:39;;;;;;;;;;;;;;;7.57;81.79;101270.59;4194196;28;20016;-64
2023/02/22 08:25:41;;;;;;;;;;;;;;;7.57;81.67;101258.00;4194776;28;20807;-64
2023/02/22 08:27:43;;;;;;;;;;;;;;;7.58;81.81;101262.34;4195317;28;20446;-63
2023/02/22 08:29:47;;;;;;;;;;;;;;;7.61;81.50;101271.16;4195091;28;20015;-63
2023/02/22 08:31:53;;;;;;;;;;;;;;;7.62;81.48;101265.63;4193922;28;20008;-64
2023/02/22 08:33:57;;;;;;;;;;;;;;;7.63;81.38;101259.22;4194731;28;20367;-64
2023/02/22 08:36:00;;;;;;;;;;;;;;;7.63;81.11;101274.53;4194209;28;20016;-63
2023/02/22 08:38:03;;;;;;;;;;;;;;;7.64;81.13;101263.63;4194814;28;20020;-64
2023/02/22 08:40:05;;;;;;;;;;;;;;;7.64;81.24;101266.31;4193750;28;20023;-64
2023/02/22 08:42:09;;;;;;;;;;;;;;;7.63;80.95;101259.22;4191706;28;20019;-64
2023/02/22 08:44:11;;;;;;;;;;;;;;;7.64;81.29;101260.09;4184310;28;20031;-64
2023/02/22 08:46:13;;;;;;;;;;;;;;;7.64;80.89;101262.78;4192873;28;20027;-65
2023/02/22 08:48:15;;;;;;;;;;;;;;;7.64;81.19;101260.94;4194949;28;20470;-64
2023/02/22 08:50:19;;;;;;;;;;;;;;;7.65;80.67;101256.41;4194545;28;20363;-64
2023/02/22 08:52:21;;;;;;;;;;;;;;;7.64;80.67;101257.41;4195284;28;20366;-64
2023/02/22 08:54:23;;;;;;;;;;;;;;;7.65;81.22;101262.66;4194629;28;20011;-64
2023/02/22 08:56:25;;;;;;;;;;;;;;;7.67;81.49;101257.13;4193530;28;20019;-64
2023/02/22 08:58:27;;;;;;;;;;;;;;;7.68;81.15;101256.97;4196612;28;20015;-64
2023/02/22 09:00:31;;;;;;;;;;;;;;;7.71;81.03;101261.19;4194355;28;20416;-64
2023/02/22 09:02:33;;;;;;;;;;;;;;;7.72;80.45;101252.16;4196059;28;20032;-63
2023/02/22 09:04:35;;;;;;;;;;;;;;;7.71;80.59;101256.69;4193863;28;20019;-64
2023/02/22 09:06:41;;;;;;;;;;;;;;;7.72;80.51;101268.28;4202306;28;20430;-64
2023/02/22 09:08:43;;;;;;;;;;;;;;;7.72;80.78;101262.91;4195107;28;20434;-64
2023/02/22 09:10:45;;;;;;;;;;;;;;;7.72;80.65;101268.28;4191931;28;20024;-65
2023/02/22 09:12:47;;;;;;;;;;;;;;;7.72;80.62;101260.22;4195048;28;20162;-65
2023/02/22 09:14:49;;;;;;;;;;;;;;;7.73;80.83;101260.06;4185792;28;20043;-64
2023/02/22 09:16:51;;;;;;;;;;;;;;;7.76;80.80;101258.94;4194830;28;20020;-64
2023/02/22 09:18:53;;;;;;;;;;;;;;;7.78;80.88;101264.19;4194147;28;20260;-65
2023/02/22 09:20:55;;;;;;;;;;;;;;;7.78;80.71;101259.63;4193319;28;20030;-64
2023/02/22 09:22:58;;;;;;;;;;;;;;;7.80;80.41;101259.50;4194309;28;20019;-65
2023/02/22 09:25:00;;;;;;;;;;;;;;;7.81;80.28;101255.81;4193205;28;20395;-63
2023/02/22 09:27:03;;;;;;;;;;;;;;;7.83;80.53;101262.72;4190973;28;20041;-64
2023/02/22 09:29:05;;;;;;;;;;;;;;;7.85;80.20;101266.13;4193529;28;20022;-65
2023/02/22 09:31:07;;;;;;;;;;;;;;;7.85;80.07;101263.44;4193284;28;20024;-64
2023/02/22 09:33:10;;;;;;;;;;;;;;;7.88;79.78;101260.47;4188910;28;20027;-64
2023/02/22 09:35:12;;;;;;;;;;;;;;;7.90;79.59;101266.53;4193328;28;20015;-65
2023/02/22 09:37:14;;;;;;;;;;;;;;;7.92;79.56;101263.69;4194923;28;20015;-65
2023/02/22 09:39:17;;;;;;;;;;;;;;;7.93;79.62;101257.31;4194518;28;20095;-65
2023/02/22 09:41:21;;;;;;;;;;;;;;;7.93;79.90;101255.47;4192959;28;20015;-65
2023/02/22 09:43:39;;;;;;;;;;;;;;;7.96;79.81;101256.16;4194170;28;20442;-65
2023/02/22 09:45:46;;;;;;;;;;;;;;;7.99;80.06;101255.88;4193742;28;20015;-65
2023/02/22 09:47:49;;;;;;;;;;;;;;;8.00;79.69;101255.72;4194543;28;20029;-64
2023/02/22 09:49:56;;;;;;;;;;;;;;;8.02;79.80;101247.50;4194430;28;20449;-64
2023/02/22 09:51:59;;;;;;;;;;;;;;;8.04;79.68;101257.16;4194958;28;20028;-64
2023/02/22 09:54:02;;;;;;;;;;;;;;;8.06;79.85;101243.53;4194532;28;20019;-64
2023/02/22 09:56:09;;;;;;;;;;;;;;;8.07;79.62;101243.41;4193799;28;20028;-65
2023/02/22 09:58:14;;;;;;;;;;;;;;;8.09;79.59;101237.88;4194967;28;20555;-64
2023/02/22 10:00:17;;;;;;;;;;;;;;;8.10;79.51;101251.16;4193363;28;20008;-63
2023/02/22 10:02:23;;;;;;;;;;;;;;;8.10;79.22;101247.63;4195329;28;20098;-64
2023/02/22 10:04:29;;;;;;;;;;;;;;;8.13;79.26;101239.25;4194352;28;20318;-64
2023/02/22 10:06:32;;;;;;;;;;;;;;;8.14;79.11;101243.66;4194590;28;20361;-65
2023/02/22 10:08:34;;;;;;;;;;;;;;;8.15;78.84;101241.78;4195227;28;20031;-65
2023/02/22 10:10:38;;;;;;;;;;;;;;;8.16;78.90;101240.81;4193008;28;20003;-65
2023/02/22 10:12:42;;;;;;;;;;;;;;;8.17;78.78;101239.81;4185902;28;20036;-64
2023/02/22 10:15:03;;;;;;;;;;;;;;;8.19;78.80;101240.50;4194410;28;20027;-64
2023/02/22 10:17:08;;;;;;;;;;;;;;;8.19;78.65;101238.66;4193964;28;20007;-64
2023/02/22 10:19:14;;;;;;;;;;;;;;;8.22;78.81;101234.81;4194414;28;20019;-64
2023/02/22 10:21:20;;;;;;;;;;;;;;;8.24;78.50;101239.03;4194157;28;21480;-64
2023/02/22 10:23:24;;;;;;;;;;;;;;;8.26;78.21;101234.38;4202205;28;20498;-63
2023/02/22 10:25:26;;;;;;;;;;;;;;;8.25;78.23;101232.69;4193291;28;20387;-65
2023/02/22 10:27:30;;;;;;;;;;;;;;;8.28;77.85;101236.91;4194975;28;20023;-64
2023/02/22 10:29:36;;;;;;;;;;;;;;;8.29;78.03;101233.22;4193423;28;20016;-64
2023/02/22 10:31:38;;;;;;;;;;;;;;;8.30;77.82;101232.22;4190831;28;20023;-65
2023/02/22 10:33:41;;;;;;;;;;;;;;;8.31;77.75;101223.16;4193302;28;20015;-64
2023/02/22 10:35:43;;;;;;;;;;;;;;;8.32;77.29;101224.84;4193528;28;20003;-65
2023/02/22 10:37:47;;;;;;;;;;;;;;;8.34;77.52;101225.56;4191856;28;20015;-64
2023/02/22 10:39:48;;;;;;;;;;;;;;;8.34;76.95;101228.25;4184212;28;20454;-64
2023/02/22 10:41:51;;;;;;;;;;;;;;;8.36;76.83;101228.09;4192016;28;20052;-64
2023/02/22 10:43:53;;;;;;;;;;;;;;;8.34;76.90;101233.63;4192047;28;20027;-63